Time;durP1;ratioP1;P1;durP2;ratioP2;P2;SDS_P1;SDS_P2;PMS_P1;PMS_P2;Temp;Humidity;BMP_temperature;BMP_pressure;BME280_temperature;BME280_humidity;BME280_pressure;Samples;Min_cycle;Max_cycle;Signal;HPM_P1;HPM_P2
2021/09/24 00:13:20;;;;;;;16.47;2.50;;;;;;;13.01;76.39;99486.79;20074131;84;109274;-88
2021/09/24 00:43:21;;;;;;;17.60;3.00;;;;;;;12.40;76.41;99454.03;19915702;86;99587;-86
2021/09/24 01:13:22;;;;;;;20.63;3.50;;;;;;;12.31;75.75;99495.91;19948429;85;99449;-85
2021/09/24 01:43:23;;;;;;;21.60;3.23;;;;;;;12.26;76.30;99552.91;19956987;86;99107;-87
2021/09/24 02:13:24;;;;;;;19.80;4.00;;;;;;;12.34;76.44;99557.17;19946031;83;99639;-85
2021/09/24 02:43:25;;;;;;;19.55;3.62;;;;;;;12.38;77.41;99568.17;19523843;87;99484;-87
2021/09/24 03:13:26;;;;;;;25.53;4.43;;;;;;;12.31;78.31;99590.33;20110510;85;99218;-84
2021/09/24 03:43:27;;;;;;;17.90;3.10;;;;;;;11.99;80.05;99649.87;20232640;85;99242;-82
2021/09/24 04:13:28;;;;;;;17.33;3.20;;;;;;;11.62;82.73;99650.31;20040726;84;99305;-87
2021/09/24 04:43:30;;;;;;;13.65;3.55;;;;;;;11.42;84.30;99663.77;19922789;86;99274;-85
2021/09/24 05:13:31;;;;;;;21.17;3.50;;;;;;;11.28;85.26;99696.11;20066895;84;100710;-83
2021/09/24 05:43:33;;;;;;;26.73;5.50;;;;;;;11.31;86.32;99733.86;20176487;85;99508;-86
2021/09/24 06:13:34;;;;;;;19.20;4.83;;;;;;;11.43;86.67;99763.73;20219998;85;121874;-83
2021/09/24 06:43:35;;;;;;;17.77;4.75;;;;;;;12.02;86.67;99794.44;20248201;84;143669;-85
2021/09/24 07:13:36;;;;;;;11.75;2.30;;;;;;;12.38;86.25;99827.55;20203961;85;99414;-85
2021/09/24 07:43:37;;;;;;;15.10;2.70;;;;;;;12.82;85.81;99872.59;20185489;85;99255;-86
2021/09/24 08:13:39;;;;;;;17.00;3.02;;;;;;;13.28;84.62;99917.87;20186576;85;99392;-92
2021/09/24 08:43:40;;;;;;;15.00;3.60;;;;;;;13.89;82.43;99941.22;20184302;85;99909;-85
2021/09/24 09:13:51;;;;;;;14.50;3.27;;;;;;;14.19;81.13;99965.41;20182796;85;99308;-84
2021/09/24 09:43:58;;;;;;;16.62;3.55;;;;;;;14.65;78.87;99990.59;20225644;85;99298;-85
2021/09/24 10:14:04;;;;;;;11.63;2.77;;;;;;;14.81;77.92;100024.03;20110027;85;99445;-86
2021/09/24 10:44:05;;;;;;;14.43;3.10;;;;;;;15.83;75.79;100028.91;20036859;85;99397;-86
2021/09/24 11:14:33;;;;;;;15.60;2.83;;;;;;;17.12;71.65;100029.84;20148473;84;99342;-86
2021/09/24 11:44:37;;;;;;;10.85;2.70;;;;;;;17.56;68.06;100023.06;20235716;85;99995;-86
2021/09/24 12:14:38;;;;;;;12.77;2.40;;;;;;;17.99;65.96;100029.16;20235407;84;99539;-86
2021/09/24 12:44:53;;;;;;;13.90;2.42;;;;;;;18.62;61.76;100039.25;20185521;85;105581;-84
2021/09/24 13:14:55;;;;;;;14.43;2.60;;;;;;;18.09;61.94;100053.80;20064877;86;100022;-85
2021/09/24 14:22:06;;;;;;;16.62;2.86;;;;;;;17.82;59.13;100072.14;22616599;76;2477189;-87
2021/09/24 14:52:07;;;;;;;15.73;3.23;;;;;;;16.97;60.36;100100.84;22113153;78;160075;-85
2021/09/24 15:22:08;;;;;;;12.47;3.00;;;;;;;16.51;62.03;100119.00;21666390;80;101625;-85
2021/09/24 15:52:09;;;;;;;20.07;3.40;;;;;;;16.08;64.31;100108.41;21468855;80;100156;-86
2021/09/24 16:22:10;;;;;;;18.50;5.50;;;;;;;16.07;65.72;100147.09;21628980;79;99584;-86
2021/09/24 16:52:11;;;;;;;18.93;4.30;;;;;;;15.84;67.15;100153.97;21529348;79;99350;-84
2021/09/24 17:22:14;;;;;;;17.35;3.77;;;;;;;15.50;70.57;100165.74;21938421;79;99532;-88
2021/09/24 17:52:15;;;;;;;12.57;3.90;;;;;;;15.37;73.75;100184.14;21940491;79;99681;-87
2021/09/24 18:22:21;;;;;;;14.10;4.00;;;;;;;15.27;76.37;100223.22;21960317;79;99849;-89
2021/09/24 18:52:19;;;;;;;14.17;5.57;;;;;;;15.14;79.16;100228.32;21703196;79;99710;-88
2021/09/24 19:22:20;;;;;;;12.23;3.50;;;;;;;15.28;80.54;100253.13;21720068;79;113552;-88
2021/09/24 19:52:21;;;;;;;9.87;3.40;;;;;;;15.28;81.77;100260.86;21777396;79;99867;-89
2021/09/24 20:22:22;;;;;;;12.25;3.15;;;;;;;15.28;83.12;100256.70;22009808;78;99403;-87
2021/09/24 20:52:23;;;;;;;8.53;3.67;;;;;;;15.30;84.07;100247.95;21739130;79;2276176;-88
2021/09/24 21:22:24;;;;;;;9.80;3.73;;;;;;;15.30;84.44;100229.34;21696136;79;101561;-89
2021/09/24 21:52:28;;;;;;;10.20;4.10;;;;;;;15.38;84.73;100223.92;21597611;80;99442;-90
2021/09/24 22:22:30;;;;;;;10.07;4.60;;;;;;;15.41;84.80;100232.02;21554722;80;100360;-89
2021/09/24 22:52:31;;;;;;;10.63;5.83;;;;;;;15.42;84.85;100213.58;21446556;80;99573;-90
2021/09/24 23:22:32;;;;;;;11.53;5.77;;;;;;;15.45;85.27;100196.13;21767251;78;99503;-89
2021/09/24 23:52:33;;;;;;;11.77;5.70;;;;;;;15.52;85.57;100196.61;21678198;79;99562;-89
